Time;durP1;ratioP1;P1;durP2;ratioP2;P2;SDS_P1;SDS_P2;PMS_P1;PMS_P2;Temp;Humidity;BMP_temperature;BMP_pressure;BME280_temperature;BME280_humidity;BME280_pressure;Samples;Min_cycle;Max_cycle;Signal;HPM_P1;HPM_P2
2021/12/30 00:00:23;;;;;;;4.22;2.85;;;;;;;;;;5046038;28;20120;-84
2021/12/30 00:02:48;;;;;;;4.88;3.30;;;;;;;;;;5056173;28;20025;-84
2021/12/30 00:05:14;;;;;;;4.22;2.72;;;;;;;;;;5050809;28;20388;-85
2021/12/30 00:07:41;;;;;;;5.00;2.40;;;;;;;;;;5061230;28;20025;-84
2021/12/30 00:10:07;;;;;;;6.90;3.13;;;;;;;;;;5043971;28;20412;-84
2021/12/30 00:12:32;;;;;;;2.83;1.90;;;;;;;;;;5053284;28;20029;-86
2021/12/30 00:14:58;;;;;;;7.38;3.80;;;;;;;;;;5069360;28;20475;-84
2021/12/30 00:17:24;;;;;;;3.03;1.65;;;;;;;;;;5069214;28;20017;-85
2021/12/30 00:19:49;;;;;;;3.53;2.15;;;;;;;;;;5058910;28;20033;-84
2021/12/30 00:22:15;;;;;;;3.28;2.35;;;;;;;;;;5067614;28;20052;-83
2021/12/30 00:24:40;;;;;;;3.35;1.95;;;;;;;;;;5049188;28;20025;-84
2021/12/30 00:27:06;;;;;;;2.85;1.55;;;;;;;;;;5041856;28;20040;-83
2021/12/30 00:29:31;;;;;;;3.20;2.17;;;;;;;;;;5054951;28;20096;-82
2021/12/30 00:31:57;;;;;;;6.35;2.58;;;;;;;;;;5057991;28;20064;-85
2021/12/30 00:34:22;;;;;;;7.32;4.03;;;;;;;;;;5050119;28;20100;-84
2021/12/30 00:36:48;;;;;;;4.35;2.40;;;;;;;;;;5046479;28;20404;-84
2021/12/30 00:39:13;;;;;;;4.28;2.25;;;;;;;;;;5064614;28;20029;-84
2021/12/30 00:41:39;;;;;;;2.38;1.40;;;;;;;;;;5046258;28;20033;-83
2021/12/30 00:44:05;;;;;;;4.60;2.05;;;;;;;;;;5061549;28;20026;-89
2021/12/30 00:46:34;;;;;;;2.47;1.52;;;;;;;;;;5044786;28;20055;-84
2021/12/30 00:48:59;;;;;;;1.80;1.15;;;;;;;;;;5057122;28;20037;-84
2021/12/30 00:51:25;;;;;;;1.75;1.35;;;;;;;;;;5054179;28;20084;-84
2021/12/30 00:53:50;;;;;;;4.03;1.90;;;;;;;;;;5066081;28;20082;-83
2021/12/30 00:56:16;;;;;;;2.22;1.48;;;;;;;;;;5058750;28;20028;-82
2021/12/30 00:58:42;;;;;;;2.50;1.65;;;;;;;;;;5059093;28;20036;-83
2021/12/30 01:01:07;;;;;;;2.70;1.50;;;;;;;;;;5038114;28;20037;-83
2021/12/30 01:03:34;;;;;;;2.15;1.27;;;;;;;;;;5054039;28;20120;-83
2021/12/30 01:06:00;;;;;;;2.28;1.50;;;;;;;;;;5043260;28;20021;-83
2021/12/30 01:08:26;;;;;;;1.65;0.82;;;;;;;;;;5043223;28;20025;-83
2021/12/30 01:10:52;;;;;;;2.22;1.60;;;;;;;;;;5060574;28;20031;-83
2021/12/30 01:13:24;;;;;;;3.88;1.95;;;;;;;;;;5056921;28;20032;-84
2021/12/30 01:16:00;;;;;;;2.72;1.67;;;;;;;;;;5049780;28;20056;-83
2021/12/30 01:20:58;;;;;;;2.65;1.48;;;;;;;;;;5060112;28;20017;-83
2021/12/30 01:23:25;;;;;;;2.25;1.25;;;;;;;;;;5056352;28;20397;-83
2021/12/30 01:25:51;;;;;;;2.35;1.25;;;;;;;;;;5055004;28;20039;-84
2021/12/30 01:28:17;;;;;;;1.38;1.02;;;;;;;;;;5068684;28;20025;-83
2021/12/30 01:30:43;;;;;;;1.92;1.02;;;;;;;;;;5052904;28;20025;-83
2021/12/30 01:33:09;;;;;;;1.88;1.30;;;;;;;;;;5057203;28;20028;-84
2021/12/30 01:35:34;;;;;;;2.50;1.55;;;;;;;;;;5055187;28;20025;-82
2021/12/30 01:38:01;;;;;;;1.75;1.13;;;;;;;;;;5053284;28;20539;-82
2021/12/30 01:40:29;;;;;;;1.02;0.98;;;;;;;;;;5039114;28;20029;-83
2021/12/30 01:42:54;;;;;;;1.85;1.40;;;;;;;;;;5039687;28;20029;-83
2021/12/30 01:45:20;;;;;;;2.42;1.45;;;;;;;;;;5052652;28;20032;-83
2021/12/30 01:47:54;;;;;;;1.40;1.13;;;;;;;;;;5039885;28;20021;-84
2021/12/30 01:50:22;;;;;;;1.23;1.00;;;;;;;;;;5036780;28;20116;-84
2021/12/30 01:52:48;;;;;;;3.28;1.65;;;;;;;;;;5054108;28;20021;-84
2021/12/30 01:55:15;;;;;;;2.25;1.27;;;;;;;;;;5058024;28;20074;-82
2021/12/30 01:57:41;;;;;;;2.47;1.02;;;;;;;;;;5030514;28;20036;-82
2021/12/30 02:00:12;;;;;;;1.58;1.05;;;;;;;;;;5045574;28;20384;-83
2021/12/30 02:02:38;;;;;;;1.65;1.00;;;;;;;;;;5056221;28;20499;-84
2021/12/30 02:05:04;;;;;;;1.80;1.30;;;;;;;;;;5053667;28;20047;-83
2021/12/30 02:07:30;;;;;;;2.40;1.50;;;;;;;;;;5059559;28;20047;-83
2021/12/30 02:10:00;;;;;;;2.03;1.25;;;;;;;;;;5044092;28;20047;-82
2021/12/30 02:12:27;;;;;;;3.53;1.83;;;;;;;;;;5041377;28;20033;-83
2021/12/30 02:14:53;;;;;;;2.10;1.50;;;;;;;;;;5057839;28;20059;-82
2021/12/30 02:17:18;;;;;;;3.10;1.58;;;;;;;;;;5052487;28;20048;-83
2021/12/30 02:19:44;;;;;;;3.25;1.98;;;;;;;;;;5052080;28;20028;-83
2021/12/30 02:22:09;;;;;;;2.22;1.58;;;;;;;;;;5060800;28;20060;-83
2021/12/30 02:24:43;;;;;;;2.28;1.13;;;;;;;;;;5052616;28;20666;-83
2021/12/30 02:27:08;;;;;;;2.15;1.45;;;;;;;;;;5057749;28;20032;-83
2021/12/30 02:29:34;;;;;;;2.83;1.60;;;;;;;;;;5052090;28;20071;-82
2021/12/30 02:32:00;;;;;;;3.22;1.40;;;;;;;;;;5044602;28;20021;-83
2021/12/30 02:34:25;;;;;;;2.58;1.48;;;;;;;;;;5053487;28;20028;-83
2021/12/30 02:36:51;;;;;;;2.08;1.52;;;;;;;;;;5046462;28;20032;-83
2021/12/30 02:39:19;;;;;;;1.80;1.30;;;;;;;;;;5041472;28;20063;-83
2021/12/30 02:41:45;;;;;;;2.28;1.70;;;;;;;;;;5043432;28;20029;-82
2021/12/30 02:44:10;;;;;;;2.13;1.50;;;;;;;;;;5052136;28;20547;-83
2021/12/30 02:46:39;;;;;;;2.08;1.33;;;;;;;;;;5061467;28;20057;-85
2021/12/30 02:49:05;;;;;;;3.22;2.25;;;;;;;;;;5053658;28;20021;-83
2021/12/30 02:51:30;;;;;;;4.65;2.40;;;;;;;;;;5038965;28;20392;-83
2021/12/30 02:53:56;;;;;;;3.03;1.85;;;;;;;;;;5059753;28;20032;-84
2021/12/30 02:56:23;;;;;;;2.58;1.27;;;;;;;;;;5040527;28;20526;-82
2021/12/30 02:58:49;;;;;;;3.50;1.77;;;;;;;;;;5058927;28;20021;-82
2021/12/30 03:01:18;;;;;;;2.58;1.73;;;;;;;;;;5036499;28;20146;-83
2021/12/30 03:03:44;;;;;;;1.88;1.58;;;;;;;;;;5056678;28;20033;-83
2021/12/30 03:06:12;;;;;;;2.63;1.90;;;;;;;;;;5043911;28;20041;-83
2021/12/30 03:08:38;;;;;;;1.50;1.13;;;;;;;;;;5040537;28;20052;-82
2021/12/30 03:11:05;;;;;;;3.70;2.50;;;;;;;;;;5067204;28;20454;-82
2021/12/30 03:13:32;;;;;;;1.92;1.35;;;;;;;;;;5053976;28;20090;-83
2021/12/30 03:16:04;;;;;;;3.33;2.28;;;;;;;;;;5059719;28;20044;-82
2021/12/30 03:18:32;;;;;;;3.10;1.98;;;;;;;;;;5041722;28;20381;-83
2021/12/30 03:20:59;;;;;;;3.63;2.20;;;;;;;;;;5060605;28;20128;-83
2021/12/30 03:23:32;;;;;;;2.15;1.63;;;;;;;;;;5050344;28;20025;-83
2021/12/30 03:25:58;;;;;;;2.42;1.88;;;;;;;;;;5055673;28;20412;-83
2021/12/30 03:28:24;;;;;;;3.72;2.28;;;;;;;;;;5038258;28;20024;-83
2021/12/30 03:30:51;;;;;;;3.80;2.20;;;;;;;;;;5053619;28;20057;-84
2021/12/30 03:33:17;;;;;;;3.63;2.80;;;;;;;;;;5051113;28;20029;-81
2021/12/30 03:35:43;;;;;;;3.78;2.47;;;;;;;;;;5051357;28;20111;-83
2021/12/30 03:38:08;;;;;;;4.78;3.00;;;;;;;;;;5054084;28;20099;-83
2021/12/30 03:40:35;;;;;;;4.00;1.70;;;;;;;;;;5035182;28;20036;-84
2021/12/30 03:43:01;;;;;;;2.53;1.65;;;;;;;;;;5049669;28;20047;-84
2021/12/30 03:45:26;;;;;;;4.55;2.53;;;;;;;;;;5044535;28;20022;-84
2021/12/30 03:47:53;;;;;;;3.95;2.25;;;;;;;;;;5037807;28;20025;-84
2021/12/30 03:50:23;;;;;;;3.67;2.40;;;;;;;;;;5049366;28;20047;-86
2021/12/30 03:52:52;;;;;;;4.63;2.95;;;;;;;;;;5045692;28;20468;-84
2021/12/30 03:55:19;;;;;;;5.57;3.05;;;;;;;;;;5038964;28;20028;-84
2021/12/30 03:57:45;;;;;;;3.58;2.30;;;;;;;;;;5045561;28;20428;-84
2021/12/30 04:00:13;;;;;;;3.85;2.35;;;;;;;;;;5032665;28;20477;-84
2021/12/30 04:02:39;;;;;;;3.00;2.10;;;;;;;;;;5042674;28;20476;-82
2021/12/30 04:05:06;;;;;;;3.33;2.25;;;;;;;;;;5046558;28;20025;-82
2021/12/30 04:07:32;;;;;;;3.97;2.70;;;;;;;;;;5048489;28;20052;-82
2021/12/30 04:09:57;;;;;;;3.75;2.60;;;;;;;;;;5051287;28;20060;-82
2021/12/30 04:12:23;;;;;;;3.20;2.33;;;;;;;;;;5048151;28;20029;-83
2021/12/30 04:14:48;;;;;;;3.33;2.50;;;;;;;;;;5052582;28;20107;-83
2021/12/30 04:17:14;;;;;;;4.07;2.40;;;;;;;;;;5042388;28;20437;-82
2021/12/30 04:19:40;;;;;;;3.33;2.22;;;;;;;;;;5020800;28;20478;-82
2021/12/30 04:22:05;;;;;;;5.18;2.78;;;;;;;;;;5061574;28;20051;-81
2021/12/30 04:24:31;;;;;;;3.63;2.28;;;;;;;;;;5056127;28;20024;-83
2021/12/30 04:26:57;;;;;;;5.40;2.72;;;;;;;;;;5056225;28;20033;-82
2021/12/30 04:29:23;;;;;;;4.47;2.67;;;;;;;;;;5057290;28;20025;-83
2021/12/30 04:31:48;;;;;;;4.57;3.20;;;;;;;;;;5063457;28;20024;-81
2021/12/30 04:34:15;;;;;;;6.32;3.17;;;;;;;;;;5057080;28;20123;-81
2021/12/30 04:36:41;;;;;;;3.20;2.25;;;;;;;;;;5058597;28;20417;-82
2021/12/30 04:39:08;;;;;;;4.70;2.80;;;;;;;;;;5045979;28;20029;-82
2021/12/30 04:41:33;;;;;;;3.90;2.58;;;;;;;;;;5059356;28;20028;-84
2021/12/30 04:43:59;;;;;;;3.30;2.55;;;;;;;;;;5060714;28;20025;-82
2021/12/30 04:46:24;;;;;;;6.22;3.28;;;;;;;;;;5062055;28;20027;-82
2021/12/30 04:48:51;;;;;;;5.13;3.72;;;;;;;;;;5044105;28;20100;-83
2021/12/30 04:51:17;;;;;;;5.30;4.03;;;;;;;;;;5045924;28;20390;-82
2021/12/30 04:53:43;;;;;;;6.30;3.60;;;;;;;;;;5055580;28;20024;-84
2021/12/30 04:56:09;;;;;;;5.53;3.55;;;;;;;;;;5053298;28;20039;-84
2021/12/30 04:58:34;;;;;;;4.80;3.35;;;;;;;;;;5048556;28;20461;-83
2021/12/30 05:01:00;;;;;;;3.35;2.42;;;;;;;;;;5062554;28;20031;-82
2021/12/30 05:03:27;;;;;;;4.68;3.40;;;;;;;;;;5055932;28;20028;-82
2021/12/30 05:05:54;;;;;;;3.58;2.97;;;;;;;;;;5040977;28;20021;-85
2021/12/30 05:08:22;;;;;;;5.00;3.53;;;;;;;;;;5059309;28;20377;-84
2021/12/30 05:10:49;;;;;;;4.43;3.05;;;;;;;;;;5058725;28;20472;-84
2021/12/30 05:13:16;;;;;;;5.45;3.33;;;;;;;;;;5064302;28;20028;-83
2021/12/30 05:15:42;;;;;;;7.05;4.07;;;;;;;;;;5058422;28;20560;-83
2021/12/30 05:18:12;;;;;;;6.70;3.95;;;;;;;;;;5058545;28;20033;-83
2021/12/30 05:20:38;;;;;;;7.18;3.83;;;;;;;;;;5058382;28;20028;-82
2021/12/30 05:23:05;;;;;;;4.40;3.15;;;;;;;;;;5067669;28;20048;-82
2021/12/30 05:25:31;;;;;;;5.20;3.60;;;;;;;;;;5057830;28;20069;-83
2021/12/30 05:27:57;;;;;;;10.48;4.80;;;;;;;;;;5039942;28;20770;-83
2021/12/30 05:30:24;;;;;;;5.88;3.10;;;;;;;;;;5058262;28;20043;-83
2021/12/30 05:32:52;;;;;;;6.40;3.42;;;;;;;;;;5055622;28;20028;-84
2021/12/30 05:35:21;;;;;;;5.78;3.83;;;;;;;;;;5039216;28;20033;-83
2021/12/30 05:37:47;;;;;;;5.38;3.20;;;;;;;;;;5038795;28;20056;-84
2021/12/30 05:40:18;;;;;;;5.93;3.45;;;;;;;;;;5045325;28;20468;-82
2021/12/30 05:42:44;;;;;;;6.95;4.45;;;;;;;;;;5056962;28;20020;-83
2021/12/30 05:45:11;;;;;;;10.20;6.75;;;;;;;;;;5040489;28;20365;-82
2021/12/30 05:47:37;;;;;;;7.75;4.85;;;;;;;;;;5054363;28;20029;-83
2021/12/30 05:50:08;;;;;;;7.72;5.45;;;;;;;;;;5042198;28;20040;-82
2021/12/30 05:52:34;;;;;;;9.35;5.07;;;;;;;;;;5053010;28;20472;-82
2021/12/30 05:54:59;;;;;;;8.57;5.85;;;;;;;;;;5053755;28;20056;-83
2021/12/30 05:57:25;;;;;;;7.50;4.35;;;;;;;;;;5043131;28;20488;-83
2021/12/30 05:59:50;;;;;;;6.07;4.15;;;;;;;;;;5066936;28;20035;-83
2021/12/30 06:02:16;;;;;;;9.93;5.97;;;;;;;;;;5055477;28;20095;-81
2021/12/30 06:04:42;;;;;;;11.45;6.68;;;;;;;;;;5057611;28;20461;-81
2021/12/30 06:07:08;;;;;;;12.23;8.75;;;;;;;;;;5055785;28;20024;-83
2021/12/30 06:09:34;;;;;;;8.20;5.65;;;;;;;;;;5053408;28;20024;-82
2021/12/30 06:11:59;;;;;;;9.85;6.28;;;;;;;;;;5061832;28;20041;-83
2021/12/30 06:14:25;;;;;;;7.60;4.65;;;;;;;;;;5052207;28;20033;-81
2021/12/30 06:16:50;;;;;;;8.23;5.32;;;;;;;;;;5058379;28;20029;-80
2021/12/30 06:19:16;;;;;;;8.93;6.13;;;;;;;;;;5056963;28;20032;-82
2021/12/30 06:21:41;;;;;;;10.90;5.38;;;;;;;;;;5060869;28;20123;-82
2021/12/30 06:24:07;;;;;;;6.85;4.20;;;;;;;;;;5049602;28;20024;-81
2021/12/30 06:26:32;;;;;;;4.90;3.40;;;;;;;;;;5043185;28;20025;-81
2021/12/30 06:28:58;;;;;;;5.43;3.53;;;;;;;;;;5051644;28;20075;-82
2021/12/30 06:31:24;;;;;;;5.47;3.92;;;;;;;;;;5034232;28;20048;-83
2021/12/30 06:33:53;;;;;;;5.55;3.53;;;;;;;;;;5044612;28;20033;-82
2021/12/30 06:36:21;;;;;;;5.03;3.50;;;;;;;;;;5066215;28;20028;-83
2021/12/30 06:38:47;;;;;;;5.97;4.78;;;;;;;;;;5059188;28;20021;-86
2021/12/30 06:41:12;;;;;;;4.50;4.00;;;;;;;;;;5058443;28;20028;-85
2021/12/30 06:43:38;;;;;;;10.25;5.30;;;;;;;;;;5041436;28;20025;-83
2021/12/30 06:46:05;;;;;;;5.47;4.35;;;;;;;;;;5054065;28;20032;-85
2021/12/30 06:48:31;;;;;;;7.25;4.95;;;;;;;;;;5064776;28;20095;-84
2021/12/30 06:50:59;;;;;;;5.78;4.20;;;;;;;;;;5053313;28;20055;-85
2021/12/30 06:53:26;;;;;;;6.88;4.75;;;;;;;;;;5054648;28;20024;-85
2021/12/30 06:55:52;;;;;;;10.63;5.60;;;;;;;;;;5045183;28;20685;-85
2021/12/30 06:58:19;;;;;;;5.80;4.30;;;;;;;;;;5055958;28;20036;-84
2021/12/30 07:00:47;;;;;;;6.75;4.80;;;;;;;;;;5051917;28;20039;-84
2021/12/30 07:03:12;;;;;;;7.82;5.40;;;;;;;;;;5055536;28;20155;-83
2021/12/30 07:05:38;;;;;;;8.90;5.15;;;;;;;;;;5051456;28;20055;-83
2021/12/30 07:08:04;;;;;;;7.05;4.65;;;;;;;;;;5042465;28;20388;-82
2021/12/30 07:10:30;;;;;;;6.28;4.28;;;;;;;;;;5051774;28;20025;-83
2021/12/30 07:12:55;;;;;;;5.85;3.72;;;;;;;;;;5051818;28;20035;-83
2021/12/30 07:15:21;;;;;;;5.43;3.38;;;;;;;;;;5039310;28;20496;-83
2021/12/30 07:17:47;;;;;;;5.43;3.47;;;;;;;;;;5044002;28;20059;-83
2021/12/30 07:20:14;;;;;;;4.22;2.55;;;;;;;;;;5054511;28;20082;-82
2021/12/30 07:22:40;;;;;;;5.43;3.40;;;;;;;;;;5020752;28;20501;-82
2021/12/30 07:25:07;;;;;;;4.50;3.05;;;;;;;;;;5010566;28;20099;-82
2021/12/30 07:27:33;;;;;;;5.53;3.08;;;;;;;;;;5031163;28;20035;-83
2021/12/30 07:29:59;;;;;;;5.15;3.13;;;;;;;;;;5009744;28;20022;-82
2021/12/30 07:32:28;;;;;;;4.38;3.53;;;;;;;;;;5013991;28;20084;-82
2021/12/30 07:34:54;;;;;;;24.00;13.50;;;;;;;;;;5010661;28;20033;-84
2021/12/30 07:37:20;;;;;;;18.83;10.80;;;;;;;;;;5025296;28;20030;-83
2021/12/30 07:39:47;;;;;;;11.07;7.00;;;;;;;;;;5026429;28;20476;-83
2021/12/30 07:42:13;;;;;;;10.52;7.30;;;;;;;;;;5015345;28;20025;-83
2021/12/30 07:44:40;;;;;;;4.80;3.10;;;;;;;;;;5029970;28;20116;-82
2021/12/30 07:47:07;;;;;;;4.97;2.97;;;;;;;;;;5010957;28;20076;-82
2021/12/30 07:49:36;;;;;;;6.15;3.58;;;;;;;;;;5029962;28;20026;-82
2021/12/30 07:52:03;;;;;;;4.70;3.33;;;;;;;;;;5030126;28;20034;-82
2021/12/30 07:54:28;;;;;;;4.75;3.35;;;;;;;;;;5009499;28;20036;-80
2021/12/30 07:56:53;;;;;;;4.68;2.95;;;;;;;;;;5016309;28;20104;-81
2021/12/30 07:59:19;;;;;;;4.38;2.80;;;;;;;;;;5034368;28;20036;-80
2021/12/30 08:01:44;;;;;;;3.60;2.20;;;;;;;;;;5034044;28;20366;-81
2021/12/30 08:04:10;;;;;;;3.30;2.05;;;;;;;;;;5034503;28;20029;-81
2021/12/30 08:06:35;;;;;;;3.60;3.08;;;;;;;;;;5034105;28;20059;-80
2021/12/30 08:09:01;;;;;;;4.70;2.72;;;;;;;;;;5032682;28;20474;-81
2021/12/30 08:11:27;;;;;;;4.78;2.65;;;;;;;;;;5016329;28;20025;-82
2021/12/30 08:13:52;;;;;;;7.57;3.42;;;;;;;;;;5034702;28;20029;-82
2021/12/30 08:16:18;;;;;;;11.50;3.55;;;;;;;;;;5032808;28;20067;-81
2021/12/30 08:18:44;;;;;;;4.40;2.60;;;;;;;;;;5034312;28;20574;-82
2021/12/30 08:21:10;;;;;;;6.28;3.55;;;;;;;;;;5036321;28;20477;-82
2021/12/30 08:23:36;;;;;;;4.65;2.80;;;;;;;;;;5046215;28;20481;-81
2021/12/30 08:26:04;;;;;;;6.72;3.88;;;;;;;;;;5034957;28;20060;-82
2021/12/30 08:28:29;;;;;;;5.18;3.70;;;;;;;;;;5048217;28;20064;-81
2021/12/30 08:30:55;;;;;;;5.70;3.58;;;;;;;;;;5048469;28;20099;-82
2021/12/30 08:33:21;;;;;;;6.25;2.47;;;;;;;;;;5052466;28;20040;-81
2021/12/30 08:35:48;;;;;;;3.30;2.42;;;;;;;;;;5045787;28;20021;-82
2021/12/30 08:38:14;;;;;;;4.53;2.72;;;;;;;;;;5034051;28;20053;-81
2021/12/30 08:40:41;;;;;;;4.25;2.60;;;;;;;;;;5046821;28;20063;-84
2021/12/30 08:43:07;;;;;;;4.70;3.38;;;;;;;;;;5048441;28;20335;-82
2021/12/30 08:45:36;;;;;;;4.40;2.97;;;;;;;;;;5042501;28;20035;-82
2021/12/30 08:48:02;;;;;;;3.35;2.53;;;;;;;;;;5052695;28;20055;-81
2021/12/30 08:50:28;;;;;;;3.25;1.90;;;;;;;;;;5042217;28;20036;-81
2021/12/30 08:52:54;;;;;;;2.55;1.60;;;;;;;;;;5053793;28;20017;-84
2021/12/30 08:55:19;;;;;;;2.83;1.77;;;;;;;;;;5050234;28;20072;-82
2021/12/30 08:57:47;;;;;;;3.15;1.80;;;;;;;;;;5049232;28;20444;-82
2021/12/30 09:00:17;;;;;;;2.80;1.60;;;;;;;;;;5049585;28;20021;-81
2021/12/30 09:02:43;;;;;;;15.30;9.40;;;;;;;;;;5032266;28;20033;-82
2021/12/30 09:05:09;;;;;;;7.22;3.30;;;;;;;;;;5050204;28;20032;-81
2021/12/30 09:07:35;;;;;;;4.57;2.60;;;;;;;;;;5046867;28;20032;-81
2021/12/30 09:10:01;;;;;;;3.50;2.10;;;;;;;;;;5052080;28;20392;-84
2021/12/30 09:12:26;;;;;;;4.28;2.50;;;;;;;;;;5040350;28;20029;-81
2021/12/30 09:14:52;;;;;;;3.97;2.47;;;;;;;;;;5050283;28;20116;-80
2021/12/30 09:17:18;;;;;;;3.70;2.40;;;;;;;;;;5049318;28;20112;-81
2021/12/30 09:19:43;;;;;;;3.67;2.38;;;;;;;;;;5044085;28;20036;-82
2021/12/30 09:22:09;;;;;;;3.30;2.75;;;;;;;;;;5048016;28;20053;-80
2021/12/30 09:24:34;;;;;;;2.88;1.88;;;;;;;;;;5047408;28;20480;-82
2021/12/30 09:27:01;;;;;;;3.20;2.00;;;;;;;;;;5051482;28;20381;-81
2021/12/30 09:29:26;;;;;;;2.80;1.98;;;;;;;;;;5045158;28;20029;-81
2021/12/30 09:31:52;;;;;;;3.95;2.85;;;;;;;;;;5039352;28;20044;-82
2021/12/30 09:34:19;;;;;;;5.03;2.17;;;;;;;;;;5046815;28;20078;-80
2021/12/30 09:36:46;;;;;;;4.90;3.30;;;;;;;;;;5044350;28;20029;-82
2021/12/30 09:39:13;;;;;;;7.25;4.18;;;;;;;;;;5047442;28;20041;-82
2021/12/30 09:41:41;;;;;;;10.18;5.32;;;;;;;;;;5044351;28;20082;-82
2021/12/30 09:44:11;;;;;;;8.10;4.78;;;;;;;;;;5037453;28;20449;-82
2021/12/30 09:46:37;;;;;;;7.68;3.63;;;;;;;;;;5046704;28;20040;-82
2021/12/30 09:49:05;;;;;;;11.82;7.40;;;;;;;;;;5049966;28;20107;-81
2021/12/30 09:51:31;;;;;;;7.80;4.50;;;;;;;;;;5049245;28;20029;-81
2021/12/30 09:53:56;;;;;;;6.15;2.67;;;;;;;;;;5030005;28;20036;-80
2021/12/30 09:56:22;;;;;;;6.20;3.22;;;;;;;;;;5046662;28;20025;-80
2021/12/30 09:58:48;;;;;;;6.38;3.63;;;;;;;;;;5050456;28;20025;-81
2021/12/30 10:01:14;;;;;;;5.45;3.03;;;;;;;;;;5050572;28;20033;-81
2021/12/30 10:03:40;;;;;;;4.53;2.58;;;;;;;;;;5041906;28;20108;-80
2021/12/30 10:06:08;;;;;;;3.78;2.00;;;;;;;;;;5048131;28;20104;-80
2021/12/30 10:08:40;;;;;;;3.08;1.75;;;;;;;;;;5047474;28;20035;-82
2021/12/30 10:11:13;;;;;;;5.70;3.08;;;;;;;;;;5033989;28;20032;-81
2021/12/30 10:13:47;;;;;;;5.45;3.70;;;;;;;;;;5045353;28;20483;-80
2021/12/30 10:16:15;;;;;;;5.30;3.08;;;;;;;;;;5046998;28;20388;-82
2021/12/30 10:18:56;;;;;;;3.83;2.25;;;;;;;;;;5025481;28;20029;-80
2021/12/30 10:21:33;;;;;;;5.50;2.97;;;;;;;;;;5042448;28;20056;-80
2021/12/30 10:24:05;;;;;;;4.40;2.53;;;;;;;;;;5061888;28;20039;-80
2021/12/30 10:26:30;;;;;;;6.18;3.83;;;;;;;;;;5055507;28;20032;-81
2021/12/30 10:29:02;;;;;;;7.40;3.47;;;;;;;;;;5054367;28;20024;-81
2021/12/30 10:31:31;;;;;;;7.00;4.25;;;;;;;;;;5050496;28;20039;-80
2021/12/30 10:34:06;;;;;;;5.22;2.85;;;;;;;;;;5041633;28;20033;-82
2021/12/30 10:36:37;;;;;;;2.85;1.73;;;;;;;;;;5058542;28;20021;-80
2021/12/30 10:39:17;;;;;;;5.78;2.22;;;;;;;;;;5052475;28;20163;-81
2021/12/30 10:41:44;;;;;;;6.75;4.00;;;;;;;;;;5035407;28;20036;-81
2021/12/30 10:44:09;;;;;;;30.65;13.27;;;;;;;;;;5037970;28;20052;-80
2021/12/30 10:46:35;;;;;;;11.93;6.13;;;;;;;;;;5050540;28;20473;-80
2021/12/30 10:49:05;;;;;;;9.63;4.82;;;;;;;;;;5037894;28;20028;-81
2021/12/30 10:51:33;;;;;;;8.52;4.40;;;;;;;;;;5051441;28;20480;-80
2021/12/30 10:54:08;;;;;;;5.25;2.88;;;;;;;;;;5046053;28;20024;-80
2021/12/30 10:56:36;;;;;;;7.25;3.45;;;;;;;;;;5054651;28;20061;-82
2021/12/30 10:59:14;;;;;;;9.43;4.55;;;;;;;;;;5058350;28;20369;-81
2021/12/30 11:02:01;;;;;;;7.38;4.70;;;;;;;;;;5035736;28;20026;-82
2021/12/30 11:04:42;;;;;;;8.15;5.93;;;;;;;;;;5050698;28;20025;-82
2021/12/30 11:07:11;;;;;;;5.75;3.30;;;;;;;;;;5054322;28;20032;-82
2021/12/30 11:09:44;;;;;;;5.68;3.40;;;;;;;;;;5054393;28;20028;-82
2021/12/30 11:12:09;;;;;;;3.95;2.13;;;;;;;;;;5027108;28;20079;-82
2021/12/30 11:14:36;;;;;;;3.67;2.40;;;;;;;;;;5050448;28;20021;-81
2021/12/30 11:17:21;;;;;;;5.95;3.38;;;;;;;;;;5046444;28;20039;-82
2021/12/30 11:19:55;;;;;;;3.97;2.58;;;;;;;;;;5050301;28;20074;-81
2021/12/30 11:22:23;;;;;;;15.50;7.38;;;;;;;;;;5021444;28;20037;-81
2021/12/30 11:24:51;;;;;;;11.45;7.18;;;;;;;;;;5013229;28;20147;-81
2021/12/30 11:27:18;;;;;;;8.68;4.82;;;;;;;;;;5030742;28;20052;-80
2021/12/30 11:29:47;;;;;;;6.88;4.03;;;;;;;;;;5030971;28;21443;-81
2021/12/30 11:32:17;;;;;;;7.65;4.53;;;;;;;;;;5016580;28;20095;-80
2021/12/30 11:34:46;;;;;;;5.30;3.10;;;;;;;;;;5033264;28;20061;-82
2021/12/30 11:37:14;;;;;;;6.88;4.05;;;;;;;;;;5012017;28;20092;-82
2021/12/30 11:39:48;;;;;;;5.05;3.10;;;;;;;;;;5030722;28;20021;-82
2021/12/30 11:42:35;;;;;;;7.43;4.93;;;;;;;;;;5017202;28;20448;-80
2021/12/30 11:45:03;;;;;;;12.85;6.40;;;;;;;;;;5034603;28;20080;-81
2021/12/30 11:47:32;;;;;;;5.65;3.63;;;;;;;;;;5033613;28;20515;-81
2021/12/30 11:50:12;;;;;;;7.75;4.93;;;;;;;;;;5015626;28;20039;-80
2021/12/30 11:52:56;;;;;;;7.50;3.95;;;;;;;;;;5028599;28;20041;-83
2021/12/30 11:55:49;;;;;;;4.78;2.15;;;;;;;;;;5032322;28;20029;-89
2021/12/30 11:58:36;;;;;;;18.25;8.77;;;;;;;;;;5034198;28;20029;-84
2021/12/30 12:01:25;;;;;;;24.23;12.95;;;;;;;;;;5033659;28;20124;-81
2021/12/30 12:04:07;;;;;;;17.42;9.00;;;;;;;;;;5030736;28;20022;-79
2021/12/30 12:06:40;;;;;;;12.88;6.32;;;;;;;;;;5016176;28;20144;-79
2021/12/30 12:09:22;;;;;;;11.30;5.97;;;;;;;;;;5034102;28;20470;-81
2021/12/30 12:11:52;;;;;;;6.00;3.65;;;;;;;;;;5015747;28;20057;-80
2021/12/30 12:14:22;;;;;;;;;;;;;;;;;;5033182;28;20040;-79
2021/12/30 12:16:59;;;;;;;4.97;2.47;;;;;;;;;;5015022;28;19921;-81
2021/12/30 12:19:33;;;;;;;4.35;2.03;;;;;;;;;;5031598;28;20026;-80
2021/12/30 12:22:01;;;;;;;4.07;2.42;;;;;;;;;;5038659;28;20041;-80
2021/12/30 12:24:31;;;;;;;6.43;3.10;;;;;;;;;;5047807;28;20047;-79
2021/12/30 12:27:01;;;;;;;6.75;3.30;;;;;;;;;;5050655;28;20021;-80
2021/12/30 12:29:28;;;;;;;;;;;;;;;;;;5053203;28;20702;-81
2021/12/30 12:31:56;;;;;;;12.80;5.68;;;;;;;;;;5053220;28;19912;-80
2021/12/30 12:34:37;;;;;;;10.45;4.25;;;;;;;;;;5056877;28;20480;-80
2021/12/30 12:37:04;;;;;;;10.88;5.07;;;;;;;;;;5051265;28;20037;-79
2021/12/30 12:39:38;;;;;;;7.47;3.92;;;;;;;;;;5049297;28;20021;-80
2021/12/30 12:42:05;;;;;;;7.13;4.18;;;;;;;;;;5029725;28;20035;-80
2021/12/30 12:44:31;;;;;;;7.55;3.85;;;;;;;;;;5035281;28;20434;-81
2021/12/30 12:46:59;;;;;;;6.88;3.83;;;;;;;;;;5050116;28;20052;-78
2021/12/30 12:49:33;;;;;;;4.38;3.45;;;;;;;;;;5044084;28;20026;-79
2021/12/30 12:52:01;;;;;;;6.28;4.00;;;;;;;;;;5048688;28;20044;-79
2021/12/30 12:54:46;;;;;;;8.13;4.47;;;;;;;;;;5052654;28;20033;-80
2021/12/30 12:57:15;;;;;;;5.97;4.20;;;;;;;;;;5047919;28;20032;-79
2021/12/30 12:59:43;;;;;;;4.85;3.35;;;;;;;;;;5051906;28;20091;-81
2021/12/30 13:02:12;;;;;;;8.13;4.75;;;;;;;;;;5053450;28;20036;-83
2021/12/30 13:04:38;;;;;;;16.58;7.60;;;;;;;;;;5052111;28;20029;-79
2021/12/30 13:07:14;;;;;;;12.85;7.28;;;;;;;;;;5052443;28;20036;-81
2021/12/30 13:09:43;;;;;;;11.57;5.82;;;;;;;;;;5049982;28;20056;-82
2021/12/30 13:12:09;;;;;;;22.95;10.32;;;;;;;;;;5052795;28;20476;-81
2021/12/30 13:14:39;;;;;;;59.10;27.80;;;;;;;;;;5050567;28;20040;-82
2021/12/30 13:17:08;;;;;;;10.45;6.95;;;;;;;;;;5052625;28;21008;-81
2021/12/30 13:19:39;;;;;;;5.38;3.10;;;;;;;;;;5046982;28;20029;-81
2021/12/30 13:22:11;;;;;;;8.85;5.10;;;;;;;;;;5052015;28;20107;-80
2021/12/30 13:24:39;;;;;;;7.15;5.07;;;;;;;;;;5048390;28;20036;-80
2021/12/30 13:27:13;;;;;;;9.63;7.13;;;;;;;;;;5050077;28;20063;-82
2021/12/30 13:29:42;;;;;;;8.70;5.78;;;;;;;;;;5055002;28;20063;-81
2021/12/30 13:32:09;;;;;;;8.25;4.78;;;;;;;;;;5055155;28;20032;-82
2021/12/30 13:34:51;;;;;;;11.68;7.05;;;;;;;;;;5052031;28;20484;-82
2021/12/30 13:37:19;;;;;;;13.23;8.68;;;;;;;;;;5051514;28;20485;-83
2021/12/30 13:39:45;;;;;;;3.33;1.77;;;;;;;;;;5047102;28;20427;-83
2021/12/30 13:42:17;;;;;;;2.40;1.52;;;;;;;;;;5051852;28;20040;-80
2021/12/30 13:44:45;;;;;;;3.88;2.58;;;;;;;;;;5049746;28;20396;-81
2021/12/30 13:47:36;;;;;;;8.68;5.25;;;;;;;;;;5048680;28;20025;-81
2021/12/30 13:50:22;;;;;;;15.95;7.93;;;;;;;;;;5037299;28;20052;-83
2021/12/30 13:52:49;;;;;;;8.00;5.68;;;;;;;;;;5049885;28;20032;-82
2021/12/30 13:55:19;;;;;;;20.23;10.55;;;;;;;;;;5048387;28;20449;-82
2021/12/30 13:58:04;;;;;;;22.00;11.98;;;;;;;;;;5043930;28;20138;-82
2021/12/30 14:00:34;;;;;;;24.02;12.68;;;;;;;;;;5047931;28;20477;-81
2021/12/30 14:03:07;;;;;;;18.08;9.85;;;;;;;;;;5053583;28;20388;-82
2021/12/30 14:05:34;;;;;;;9.48;5.10;;;;;;;;;;5051203;28;20029;-80
2021/12/30 14:08:11;;;;;;;6.82;3.65;;;;;;;;;;5052244;28;20529;-81
2021/12/30 14:10:55;;;;;;;10.52;5.53;;;;;;;;;;5029893;28;20026;-81
2021/12/30 14:13:35;;;;;;;4.78;3.10;;;;;;;;;;5047266;28;20469;-81
2021/12/30 14:16:03;;;;;;;5.32;2.97;;;;;;;;;;5043048;28;20078;-81
2021/12/30 14:18:33;;;;;;;7.80;4.00;;;;;;;;;;5033763;28;20127;-80
2021/12/30 14:21:00;;;;;;;7.03;3.92;;;;;;;;;;5051764;28;20024;-81
2021/12/30 14:23:32;;;;;;;9.95;4.95;;;;;;;;;;5049587;28;20039;-80
2021/12/30 14:26:09;;;;;;;9.25;4.60;;;;;;;;;;5038049;28;20061;-82
2021/12/30 14:28:35;;;;;;;6.68;4.10;;;;;;;;;;5048396;28;20033;-81
2021/12/30 14:31:00;;;;;;;6.25;4.45;;;;;;;;;;5039140;28;20032;-82
2021/12/30 14:33:28;;;;;;;7.30;4.38;;;;;;;;;;5045123;28;20497;-82
2021/12/30 14:36:15;;;;;;;5.05;4.05;;;;;;;;;;5037712;28;20469;-80
2021/12/30 14:38:41;;;;;;;6.20;3.60;;;;;;;;;;5051859;28;20143;-81
2021/12/30 14:41:17;;;;;;;8.35;5.53;;;;;;;;;;5047400;28;20074;-81
2021/12/30 14:44:03;;;;;;;8.02;5.65;;;;;;;;;;5049895;28;20496;-81
2021/12/30 14:46:29;;;;;;;9.52;5.85;;;;;;;;;;5046646;28;20035;-81
2021/12/30 14:49:06;;;;;;;10.73;7.72;;;;;;;;;;5040768;28;20032;-80